sensor_id;sensor_type;location;lat;lon;timestamp;pressure;altitude;pressure_sealevel;temperature;humidity
14689;BME280;7432;48.728;9.154;2023-04-28T00:00:54;96391.31;;;11.21;73.46
14689;BME280;7432;48.728;9.154;2023-04-28T00:03:20;96397.91;;;11.24;73.52
14689;BME280;7432;48.728;9.154;2023-04-28T00:05:46;96403.69;;;11.26;74.01
14689;BME280;7432;48.728;9.154;2023-04-28T00:08:13;96396.44;;;11.29;73.94
14689;BME280;7432;48.728;9.154;2023-04-28T00:10:41;96385.78;;;11.32;73.45
14689;BME280;7432;48.728;9.154;2023-04-28T00:13:07;96375.66;;;11.31;74.21
14689;BME280;7432;48.728;9.154;2023-04-28T00:15:34;96375.47;;;11.32;74.54
14689;BME280;7432;48.728;9.154;2023-04-28T00:18:00;96380.31;;;11.36;75.42
14689;BME280;7432;48.728;9.154;2023-04-28T00:20:26;96380.47;;;11.34;74.55
14689;BME280;7432;48.728;9.154;2023-04-28T00:22:53;96383.06;;;11.26;74.71
14689;BME280;7432;48.728;9.154;2023-04-28T00:25:19;96380.00;;;11.30;74.69
14689;BME280;7432;48.728;9.154;2023-04-28T00:27:47;96378.84;;;11.41;74.48
14689;BME280;7432;48.728;9.154;2023-04-28T00:30:13;96379.00;;;11.40;75.06
14689;BME280;7432;48.728;9.154;2023-04-28T00:32:39;96367.91;;;11.39;74.70
14689;BME280;7432;48.728;9.154;2023-04-28T00:35:06;96376.25;;;11.41;74.67
14689;BME280;7432;48.728;9.154;2023-04-28T00:37:35;96362.09;;;11.37;75.48
14689;BME280;7432;48.728;9.154;2023-04-28T00:40:01;96367.38;;;11.44;75.31
14689;BME280;7432;48.728;9.154;2023-04-28T00:42:28;96361.25;;;11.45;75.66
14689;BME280;7432;48.728;9.154;2023-04-28T00:44:55;96365.47;;;11.38;76.18
14689;BME280;7432;48.728;9.154;2023-04-28T00:47:22;96360.31;;;11.38;76.50
14689;BME280;7432;48.728;9.154;2023-04-28T00:49:48;96363.22;;;11.35;76.29
14689;BME280;7432;48.728;9.154;2023-04-28T00:52:15;96362.78;;;11.31;76.66
14689;BME280;7432;48.728;9.154;2023-04-28T00:54:41;96356.94;;;11.37;76.63
14689;BME280;7432;48.728;9.154;2023-04-28T00:57:08;96359.84;;;11.34;76.66
14689;BME280;7432;48.728;9.154;2023-04-28T00:59:35;96354.38;;;11.29;76.61
14689;BME280;7432;48.728;9.154;2023-04-28T01:02:04;96345.69;;;11.30;76.69
14689;BME280;7432;48.728;9.154;2023-04-28T01:04:32;96342.47;;;11.28;77.09
14689;BME280;7432;48.728;9.154;2023-04-28T01:06:59;96342.00;;;11.24;76.61
14689;BME280;7432;48.728;9.154;2023-04-28T01:09:25;96344.06;;;11.29;76.42
14689;BME280;7432;48.728;9.154;2023-04-28T01:11:52;96343.13;;;11.30;76.78
14689;BME280;7432;48.728;9.154;2023-04-28T01:14:19;96339.06;;;11.36;76.27
14689;BME280;7432;48.728;9.154;2023-04-28T01:16:46;96338.25;;;11.35;76.67
14689;BME280;7432;48.728;9.154;2023-04-28T01:19:19;96339.69;;;11.38;76.99
14689;BME280;7432;48.728;9.154;2023-04-28T01:21:46;96339.88;;;11.36;77.22
14689;BME280;7432;48.728;9.154;2023-04-28T01:24:14;96329.66;;;11.43;77.54
14689;BME280;7432;48.728;9.154;2023-04-28T01:26:40;96329.50;;;11.44;77.40
14689;BME280;7432;48.728;9.154;2023-04-28T01:29:06;96325.94;;;11.45;77.23
14689;BME280;7432;48.728;9.154;2023-04-28T01:31:33;96318.91;;;11.39;77.76
14689;BME280;7432;48.728;9.154;2023-04-28T01:33:59;96321.59;;;11.46;78.15
14689;BME280;7432;48.728;9.154;2023-04-28T01:36:25;96322.44;;;11.38;77.66
14689;BME280;7432;48.728;9.154;2023-04-28T01:38:52;96308.88;;;11.44;77.50
14689;BME280;7432;48.728;9.154;2023-04-28T01:41:20;96315.97;;;11.42;77.84
14689;BME280;7432;48.728;9.154;2023-04-28T01:43:46;96309.38;;;11.40;78.37
14689;BME280;7432;48.728;9.154;2023-04-28T01:46:13;96312.47;;;11.35;78.86
14689;BME280;7432;48.728;9.154;2023-04-28T01:48:39;96319.06;;;11.38;78.97
14689;BME280;7432;48.728;9.154;2023-04-28T01:51:05;96311.94;;;11.40;78.89
14689;BME280;7432;48.728;9.154;2023-04-28T01:53:32;96297.28;;;11.40;79.03
14689;BME280;7432;48.728;9.154;2023-04-28T01:55:58;96295.53;;;11.41;78.95
14689;BME280;7432;48.728;9.154;2023-04-28T01:58:26;96297.91;;;11.42;78.66
14689;BME280;7432;48.728;9.154;2023-04-28T02:00:52;96298.56;;;11.44;76.44
14689;BME280;7432;48.728;9.154;2023-04-28T02:03:18;96298.38;;;11.46;77.60
14689;BME280;7432;48.728;9.154;2023-04-28T02:05:45;96302.53;;;11.55;77.93
14689;BME280;7432;48.728;9.154;2023-04-28T02:08:11;96298.97;;;11.56;78.49
14689;BME280;7432;48.728;9.154;2023-04-28T02:10:38;96296.22;;;11.57;77.87
14689;BME280;7432;48.728;9.154;2023-04-28T02:13:04;96289.31;;;11.58;77.39
14689;BME280;7432;48.728;9.154;2023-04-28T02:15:32;96288.50;;;11.57;76.94
14689;BME280;7432;48.728;9.154;2023-04-28T02:17:59;96275.41;;;11.59;78.05
14689;BME280;7432;48.728;9.154;2023-04-28T02:20:25;96267.06;;;11.57;77.72
14689;BME280;7432;48.728;9.154;2023-04-28T02:22:52;96284.47;;;11.55;77.88
14689;BME280;7432;48.728;9.154;2023-04-28T02:25:18;96288.16;;;11.60;77.15
14689;BME280;7432;48.728;9.154;2023-04-28T02:27:45;96279.63;;;11.60;77.13
14689;BME280;7432;48.728;9.154;2023-04-28T02:30:11;96283.63;;;11.62;77.25
14689;BME280;7432;48.728;9.154;2023-04-28T02:32:39;96293.94;;;11.62;78.14
14689;BME280;7432;48.728;9.154;2023-04-28T02:35:06;96288.44;;;11.65;78.40
14689;BME280;7432;48.728;9.154;2023-04-28T02:37:33;96276.84;;;11.61;78.34
14689;BME280;7432;48.728;9.154;2023-04-28T02:39:59;96279.56;;;11.68;77.86
14689;BME280;7432;48.728;9.154;2023-04-28T02:42:26;96270.34;;;11.73;76.96
14689;BME280;7432;48.728;9.154;2023-04-28T02:44:52;96275.06;;;11.70;77.03
14689;BME280;7432;48.728;9.154;2023-04-28T02:47:18;96280.84;;;11.72;76.66
14689;BME280;7432;48.728;9.154;2023-04-28T02:49:46;96280.69;;;11.73;77.19
14689;BME280;7432;48.728;9.154;2023-04-28T02:52:12;96284.22;;;11.72;76.93
14689;BME280;7432;48.728;9.154;2023-04-28T02:54:39;96285.84;;;11.73;77.53
14689;BME280;7432;48.728;9.154;2023-04-28T02:57:05;96280.50;;;11.75;77.66
14689;BME280;7432;48.728;9.154;2023-04-28T02:59:32;96289.03;;;11.75;78.28
14689;BME280;7432;48.728;9.154;2023-04-28T03:01:59;96279.72;;;11.74;79.59
14689;BME280;7432;48.728;9.154;2023-04-28T03:04:26;96282.84;;;11.84;82.44
14689;BME280;7432;48.728;9.154;2023-04-28T03:06:53;96291.75;;;11.82;84.03
14689;BME280;7432;48.728;9.154;2023-04-28T03:09:20;96280.22;;;11.70;85.65
14689;BME280;7432;48.728;9.154;2023-04-28T03:11:46;96276.56;;;11.56;87.48
14689;BME280;7432;48.728;9.154;2023-04-28T03:14:13;96273.88;;;11.50;88.91
14689;BME280;7432;48.728;9.154;2023-04-28T03:16:39;96271.69;;;11.39;89.49
14689;BME280;7432;48.728;9.154;2023-04-28T03:19:05;96272.50;;;11.39;89.04
14689;BME280;7432;48.728;9.154;2023-04-28T03:21:32;96269.94;;;11.39;89.23
14689;BME280;7432;48.728;9.154;2023-04-28T03:23:59;96271.03;;;11.45;89.73
14689;BME280;7432;48.728;9.154;2023-04-28T03:26:26;96265.72;;;11.38;90.08
14689;BME280;7432;48.728;9.154;2023-04-28T03:28:52;96261.38;;;11.39;90.19
14689;BME280;7432;48.728;9.154;2023-04-28T03:31:19;96261.03;;;11.42;90.40
14689;BME280;7432;48.728;9.154;2023-04-28T03:33:46;96262.63;;;11.43;90.78
14689;BME280;7432;48.728;9.154;2023-04-28T03:36:12;96252.66;;;11.40;90.82
14689;BME280;7432;48.728;9.154;2023-04-28T03:38:38;96257.47;;;11.43;90.32
14689;BME280;7432;48.728;9.154;2023-04-28T03:41:06;96258.47;;;11.42;90.19
14689;BME280;7432;48.728;9.154;2023-04-28T03:43:33;96255.56;;;11.37;90.76
14689;BME280;7432;48.728;9.154;2023-04-28T03:46:01;96259.63;;;11.39;90.97
14689;BME280;7432;48.728;9.154;2023-04-28T03:48:28;96256.16;;;11.47;91.21
14689;BME280;7432;48.728;9.154;2023-04-28T03:50:54;96256.50;;;11.44;91.18
14689;BME280;7432;48.728;9.154;2023-04-28T03:53:21;96257.47;;;11.43;90.25
14689;BME280;7432;48.728;9.154;2023-04-28T03:55:47;96250.41;;;11.45;90.37
14689;BME280;7432;48.728;9.154;2023-04-28T03:58:15;96247.00;;;11.44;90.40
14689;BME280;7432;48.728;9.154;2023-04-28T04:00:41;96246.66;;;11.47;90.67
14689;BME280;7432;48.728;9.154;2023-04-28T04:03:08;96246.47;;;11.49;90.43
14689;BME280;7432;48.728;9.154;2023-04-28T04:05:34;96246.94;;;11.52;90.15
14689;BME280;7432;48.728;9.154;2023-04-28T04:08:00;96240.78;;;11.53;89.93
14689;BME280;7432;48.728;9.154;2023-04-28T04:10:27;96246.94;;;11.52;89.88
14689;BME280;7432;48.728;9.154;2023-04-28T04:12:53;96250.34;;;11.53;89.20
14689;BME280;7432;48.728;9.154;2023-04-28T04:15:21;96237.06;;;11.56;89.44
14689;BME280;7432;48.728;9.154;2023-04-28T04:17:47;96233.72;;;11.55;89.22
14689;BME280;7432;48.728;9.154;2023-04-28T04:20:14;96246.63;;;11.55;88.97
14689;BME280;7432;48.728;9.154;2023-04-28T04:22:40;96236.06;;;11.65;87.60
14689;BME280;7432;48.728;9.154;2023-04-28T04:25:07;96234.63;;;11.62;87.07
14689;BME280;7432;48.728;9.154;2023-04-28T04:27:33;96232.84;;;11.63;85.94
14689;BME280;7432;48.728;9.154;2023-04-28T04:30:00;96228.28;;;11.73;83.96
14689;BME280;7432;48.728;9.154;2023-04-28T04:32:27;96221.16;;;11.75;84.69
14689;BME280;7432;48.728;9.154;2023-04-28T04:34:54;96228.56;;;11.78;84.90
14689;BME280;7432;48.728;9.154;2023-04-28T04:37:21;96232.63;;;11.72;85.70
14689;BME280;7432;48.728;9.154;2023-04-28T04:39:47;96225.53;;;11.74;85.57
14689;BME280;7432;48.728;9.154;2023-04-28T04:42:14;96238.09;;;11.77;84.89
14689;BME280;7432;48.728;9.154;2023-04-28T04:44:40;96235.94;;;11.81;84.84
14689;BME280;7432;48.728;9.154;2023-04-28T04:47:06;96236.41;;;11.84;84.72
14689;BME280;7432;48.728;9.154;2023-04-28T04:49:34;96234.00;;;11.83;84.41
14689;BME280;7432;48.728;9.154;2023-04-28T04:52:00;96236.06;;;11.87;85.22
14689;BME280;7432;48.728;9.154;2023-04-28T04:54:28;96228.66;;;11.84;85.92
14689;BME280;7432;48.728;9.154;2023-04-28T04:56:55;96232.06;;;11.85;87.62
14689;BME280;7432;48.728;9.154;2023-04-28T04:59:21;96231.31;;;11.76;90.09
14689;BME280;7432;48.728;9.154;2023-04-28T05:01:47;96227.31;;;11.74;90.70
14689;BME280;7432;48.728;9.154;2023-04-28T05:04:14;96224.78;;;11.66;91.94
14689;BME280;7432;48.728;9.154;2023-04-28T05:06:43;96224.50;;;11.61;92.28
14689;BME280;7432;48.728;9.154;2023-04-28T05:09:09;96212.91;;;11.57;93.23
14689;BME280;7432;48.728;9.154;2023-04-28T05:11:35;96231.47;;;11.52;94.87
14689;BME280;7432;48.728;9.154;2023-04-28T05:14:02;96241.50;;;11.47;95.66
14689;BME280;7432;48.728;9.154;2023-04-28T05:16:28;96240.84;;;11.45;96.19
14689;BME280;7432;48.728;9.154;2023-04-28T05:18:55;96235.53;;;11.47;96.81
14689;BME280;7432;48.728;9.154;2023-04-28T05:21:21;96239.28;;;11.44;96.94
14689;BME280;7432;48.728;9.154;2023-04-28T05:23:49;96237.31;;;11.46;98.10
14689;BME280;7432;48.728;9.154;2023-04-28T05:26:15;96235.34;;;11.48;98.62
14689;BME280;7432;48.728;9.154;2023-04-28T05:28:42;96236.16;;;11.49;99.00
14689;BME280;7432;48.728;9.154;2023-04-28T05:31:08;96232.78;;;11.48;99.08
14689;BME280;7432;48.728;9.154;2023-04-28T05:33:34;96225.66;;;11.50;99.46
14689;BME280;7432;48.728;9.154;2023-04-28T05:36:01;96226.66;;;11.49;99.85
14689;BME280;7432;48.728;9.154;2023-04-28T05:38:27;96228.09;;;11.52;100.00
14689;BME280;7432;48.728;9.154;2023-04-28T05:40:57;96233.72;;;11.55;100.00
14689;BME280;7432;48.728;9.154;2023-04-28T05:43:23;96232.28;;;11.53;100.00
14689;BME280;7432;48.728;9.154;2023-04-28T05:45:50;96227.56;;;11.56;100.00
14689;BME280;7432;48.728;9.154;2023-04-28T05:48:16;96224.38;;;11.54;100.00
14689;BME280;7432;48.728;9.154;2023-04-28T05:50:43;96226.75;;;11.56;100.00
14689;BME280;7432;48.728;9.154;2023-04-28T05:53:09;96237.88;;;11.56;100.00
14689;BME280;7432;48.728;9.154;2023-04-28T05:55:36;96221.44;;;11.57;100.00
14689;BME280;7432;48.728;9.154;2023-04-28T05:58:04;96228.84;;;11.60;100.00
14689;BME280;7432;48.728;9.154;2023-04-28T06:00:31;96225.44;;;11.60;100.00
14689;BME280;7432;48.728;9.154;2023-04-28T06:02:58;96224.78;;;11.66;100.00
14689;BME280;7432;48.728;9.154;2023-04-28T06:05:24;96226.34;;;11.67;100.00
14689;BME280;7432;48.728;9.154;2023-04-28T06:07:51;96230.22;;;11.71;100.00
14689;BME280;7432;48.728;9.154;2023-04-28T06:10:18;96231.84;;;11.72;100.00
14689;BME280;7432;48.728;9.154;2023-04-28T06:12:44;96221.53;;;11.72;100.00
14689;BME280;7432;48.728;9.154;2023-04-28T06:15:12;96223.47;;;11.70;100.00
14689;BME280;7432;48.728;9.154;2023-04-28T06:17:38;96217.16;;;11.72;100.00
14689;BME280;7432;48.728;9.154;2023-04-28T06:20:06;96226.03;;;11.70;100.00
14689;BME280;7432;48.728;9.154;2023-04-28T06:22:35;96223.78;;;11.67;100.00
14689;BME280;7432;48.728;9.154;2023-04-28T06:25:02;96221.88;;;11.69;100.00
14689;BME280;7432;48.728;9.154;2023-04-28T06:27:28;96223.47;;;11.70;100.00
14689;BME280;7432;48.728;9.154;2023-04-28T06:29:56;96225.25;;;11.61;100.00
14689;BME280;7432;48.728;9.154;2023-04-28T06:32:24;96221.19;;;11.67;100.00
14689;BME280;7432;48.728;9.154;2023-04-28T06:34:51;96211.38;;;11.70;100.00
14689;BME280;7432;48.728;9.154;2023-04-28T06:37:17;96211.06;;;11.65;100.00
14689;BME280;7432;48.728;9.154;2023-04-28T06:39:43;96213.00;;;11.71;100.00
14689;BME280;7432;48.728;9.154;2023-04-28T06:42:10;96216.00;;;11.75;100.00
14689;BME280;7432;48.728;9.154;2023-04-28T06:44:36;96210.34;;;11.79;100.00
14689;BME280;7432;48.728;9.154;2023-04-28T06:47:03;96213.72;;;11.80;100.00
14689;BME280;7432;48.728;9.154;2023-04-28T06:49:30;96210.44;;;11.86;100.00
14689;BME280;7432;48.728;9.154;2023-04-28T06:51:57;96205.09;;;11.87;100.00
14689;BME280;7432;48.728;9.154;2023-04-28T06:54:23;96208.22;;;11.98;100.00
14689;BME280;7432;48.728;9.154;2023-04-28T06:56:49;96209.50;;;12.02;100.00
14689;BME280;7432;48.728;9.154;2023-04-28T06:59:16;96209.75;;;12.07;100.00
14689;BME280;7432;48.728;9.154;2023-04-28T07:01:42;96209.31;;;12.03;100.00
14689;BME280;7432;48.728;9.154;2023-04-28T07:04:09;96210.13;;;12.04;100.00
14689;BME280;7432;48.728;9.154;2023-04-28T07:06:36;96207.53;;;12.04;100.00
14689;BME280;7432;48.728;9.154;2023-04-28T07:09:03;96194.63;;;12.04;100.00
14689;BME280;7432;48.728;9.154;2023-04-28T07:11:29;96197.47;;;12.09;100.00
14689;BME280;7432;48.728;9.154;2023-04-28T07:13:57;96197.31;;;12.10;100.00
14689;BME280;7432;48.728;9.154;2023-04-28T07:16:24;96189.91;;;12.22;100.00
14689;BME280;7432;48.728;9.154;2023-04-28T07:18:50;96192.16;;;12.25;100.00
14689;BME280;7432;48.728;9.154;2023-04-28T07:21:17;96197.78;;;12.28;100.00
14689;BME280;7432;48.728;9.154;2023-04-28T07:23:45;96191.44;;;12.31;100.00
14689;BME280;7432;48.728;9.154;2023-04-28T07:26:13;96193.38;;;12.43;100.00
14689;BME280;7432;48.728;9.154;2023-04-28T07:28:40;96188.13;;;12.52;100.00
14689;BME280;7432;48.728;9.154;2023-04-28T07:31:07;96201.75;;;12.60;100.00
14689;BME280;7432;48.728;9.154;2023-04-28T07:33:33;96185.75;;;12.65;100.00
14689;BME280;7432;48.728;9.154;2023-04-28T07:35:59;96192.56;;;12.72;100.00
14689;BME280;7432;48.728;9.154;2023-04-28T07:38:26;96182.69;;;12.76;100.00
14689;BME280;7432;48.728;9.154;2023-04-28T07:40:54;96176.88;;;12.74;100.00
14689;BME280;7432;48.728;9.154;2023-04-28T07:43:21;96171.28;;;12.70;100.00
14689;BME280;7432;48.728;9.154;2023-04-28T07:45:47;96180.78;;;12.84;100.00
14689;BME280;7432;48.728;9.154;2023-04-28T07:48:14;96185.34;;;12.82;100.00
14689;BME280;7432;48.728;9.154;2023-04-28T07:50:41;96175.56;;;12.78;100.00
14689;BME280;7432;48.728;9.154;2023-04-28T07:53:07;96183.31;;;12.78;100.00
14689;BME280;7432;48.728;9.154;2023-04-28T07:55:34;96173.94;;;12.77;100.00
14689;BME280;7432;48.728;9.154;2023-04-28T07:58:02;96181.44;;;12.72;100.00
14689;BME280;7432;48.728;9.154;2023-04-28T08:00:28;96187.56;;;12.71;100.00
14689;BME280;7432;48.728;9.154;2023-04-28T08:02:55;96192.13;;;12.69;100.00
14689;BME280;7432;48.728;9.154;2023-04-28T08:05:22;96204.44;;;12.67;100.00
14689;BME280;7432;48.728;9.154;2023-04-28T08:07:48;96206.22;;;12.52;100.00
14689;BME280;7432;48.728;9.154;2023-04-28T08:10:14;96200.44;;;12.49;100.00
14689;BME280;7432;48.728;9.154;2023-04-28T08:12:41;96205.53;;;12.43;100.00
14689;BME280;7432;48.728;9.154;2023-04-28T08:15:11;96208.97;;;12.35;100.00
14689;BME280;7432;48.728;9.154;2023-04-28T08:17:37;96205.59;;;12.35;100.00
14689;BME280;7432;48.728;9.154;2023-04-28T08:20:05;96201.59;;;12.32;100.00
14689;BME280;7432;48.728;9.154;2023-04-28T08:22:31;96209.88;;;12.42;100.00
14689;BME280;7432;48.728;9.154;2023-04-28T08:24:58;96219.22;;;12.43;100.00
14689;BME280;7432;48.728;9.154;2023-04-28T08:27:25;96213.19;;;12.51;100.00
14689;BME280;7432;48.728;9.154;2023-04-28T08:29:51;96217.81;;;12.56;100.00
14689;BME280;7432;48.728;9.154;2023-04-28T08:32:19;96221.72;;;12.52;100.00
14689;BME280;7432;48.728;9.154;2023-04-28T08:34:45;96225.66;;;12.62;100.00
14689;BME280;7432;48.728;9.154;2023-04-28T08:37:12;96220.75;;;12.67;100.00
14689;BME280;7432;48.728;9.154;2023-04-28T08:39:38;96210.31;;;12.75;100.00
14689;BME280;7432;48.728;9.154;2023-04-28T08:42:04;96215.00;;;12.86;100.00
14689;BME280;7432;48.728;9.154;2023-04-28T08:44:35;96224.59;;;12.92;100.00
14689;BME280;7432;48.728;9.154;2023-04-28T08:47:04;96227.47;;;12.97;100.00
14689;BME280;7432;48.728;9.154;2023-04-28T08:49:37;96224.69;;;12.99;100.00
14689;BME280;7432;48.728;9.154;2023-04-28T08:52:09;96229.63;;;12.94;100.00
14689;BME280;7432;48.728;9.154;2023-04-28T08:54:37;96237.44;;;13.00;100.00
14689;BME280;7432;48.728;9.154;2023-04-28T08:57:07;96246.91;;;13.08;100.00
14689;BME280;7432;48.728;9.154;2023-04-28T08:59:34;96239.41;;;13.13;100.00
14689;BME280;7432;48.728;9.154;2023-04-28T09:02:03;96245.44;;;13.20;100.00
14689;BME280;7432;48.728;9.154;2023-04-28T09:04:29;96242.06;;;13.20;100.00
14689;BME280;7432;48.728;9.154;2023-04-28T09:06:57;96242.94;;;13.27;100.00
14689;BME280;7432;48.728;9.154;2023-04-28T09:09:25;96243.00;;;13.33;100.00
14689;BME280;7432;48.728;9.154;2023-04-28T09:11:54;96253.63;;;13.38;100.00
14689;BME280;7432;48.728;9.154;2023-04-28T09:14:21;96246.63;;;13.39;100.00
14689;BME280;7432;48.728;9.154;2023-04-28T09:16:48;96254.22;;;13.40;100.00
14689;BME280;7432;48.728;9.154;2023-04-28T09:19:16;96258.22;;;13.43;100.00
14689;BME280;7432;48.728;9.154;2023-04-28T09:21:47;96259.22;;;13.42;100.00
14689;BME280;7432;48.728;9.154;2023-04-28T09:24:26;96261.88;;;13.48;100.00
14689;BME280;7432;48.728;9.154;2023-04-28T09:26:53;96263.72;;;13.54;100.00
14689;BME280;7432;48.728;9.154;2023-04-28T09:29:19;96270.22;;;13.65;100.00
14689;BME280;7432;48.728;9.154;2023-04-28T09:31:46;96267.00;;;13.63;100.00
14689;BME280;7432;48.728;9.154;2023-04-28T09:34:12;96269.84;;;13.68;100.00
14689;BME280;7432;48.728;9.154;2023-04-28T09:36:39;96269.09;;;13.74;100.00
14689;BME280;7432;48.728;9.154;2023-04-28T09:39:06;96259.91;;;13.93;100.00
14689;BME280;7432;48.728;9.154;2023-04-28T09:41:37;96258.78;;;14.02;100.00
14689;BME280;7432;48.728;9.154;2023-04-28T09:44:12;96267.13;;;14.25;100.00
14689;BME280;7432;48.728;9.154;2023-04-28T09:46:39;96266.28;;;14.39;100.00
14689;BME280;7432;48.728;9.154;2023-04-28T09:49:05;96260.03;;;14.61;100.00
14689;BME280;7432;48.728;9.154;2023-04-28T09:51:32;96260.59;;;14.91;100.00
14689;BME280;7432;48.728;9.154;2023-04-28T09:54:00;96260.47;;;15.12;100.00
14689;BME280;7432;48.728;9.154;2023-04-28T09:56:27;96263.31;;;15.30;100.00
14689;BME280;7432;48.728;9.154;2023-04-28T09:58:56;96257.69;;;15.68;99.37
14689;BME280;7432;48.728;9.154;2023-04-28T10:01:23;96263.88;;;16.26;95.69
14689;BME280;7432;48.728;9.154;2023-04-28T10:03:51;96256.09;;;16.52;93.75
14689;BME280;7432;48.728;9.154;2023-04-28T10:06:19;96270.03;;;16.84;92.61
14689;BME280;7432;48.728;9.154;2023-04-28T10:08:46;96265.84;;;16.76;91.39
14689;BME280;7432;48.728;9.154;2023-04-28T10:11:14;96269.66;;;16.80;91.77
14689;BME280;7432;48.728;9.154;2023-04-28T10:13:41;96267.66;;;16.76;91.60
14689;BME280;7432;48.728;9.154;2023-04-28T10:16:11;96269.84;;;16.85;92.36
14689;BME280;7432;48.728;9.154;2023-04-28T10:18:38;96269.00;;;17.04;92.48
14689;BME280;7432;48.728;9.154;2023-04-28T10:21:05;96273.75;;;17.14;90.38
14689;BME280;7432;48.728;9.154;2023-04-28T10:23:58;96267.50;;;17.22;90.45
14689;BME280;7432;48.728;9.154;2023-04-28T10:26:35;96270.56;;;17.12;90.74
14689;BME280;7432;48.728;9.154;2023-04-28T10:29:22;96267.59;;;17.02;90.78
14689;BME280;7432;48.728;9.154;2023-04-28T10:32:18;96264.25;;;16.88;91.39
14689;BME280;7432;48.728;9.154;2023-04-28T10:34:45;96258.25;;;16.81;92.78
14689;BME280;7432;48.728;9.154;2023-04-28T10:37:12;96258.69;;;16.72;92.11
14689;BME280;7432;48.728;9.154;2023-04-28T10:39:40;96259.44;;;16.79;92.27
14689;BME280;7432;48.728;9.154;2023-04-28T10:45:07;96268.63;;;16.81;91.02
14689;BME280;7432;48.728;9.154;2023-04-28T10:48:00;96265.28;;;16.74;91.24
14689;BME280;7432;48.728;9.154;2023-04-28T10:50:30;96261.88;;;16.80;92.17
14689;BME280;7432;48.728;9.154;2023-04-28T10:52:56;96263.25;;;16.76;93.63
14689;BME280;7432;48.728;9.154;2023-04-28T10:55:34;96269.56;;;17.06;92.75
14689;BME280;7432;48.728;9.154;2023-04-28T10:58:29;96272.47;;;17.30;90.43
14689;BME280;7432;48.728;9.154;2023-04-28T11:01:25;96266.97;;;17.51;89.43
14689;BME280;7432;48.728;9.154;2023-04-28T11:03:54;96265.50;;;17.68;88.53
14689;BME280;7432;48.728;9.154;2023-04-28T11:06:27;96269.94;;;17.67;85.52
14689;BME280;7432;48.728;9.154;2023-04-28T11:08:57;96264.97;;;17.59;85.68
14689;BME280;7432;48.728;9.154;2023-04-28T11:11:25;96273.53;;;17.66;86.37
14689;BME280;7432;48.728;9.154;2023-04-28T11:13:53;96267.81;;;17.83;85.55
14689;BME280;7432;48.728;9.154;2023-04-28T11:16:22;96270.13;;;18.22;84.78
14689;BME280;7432;48.728;9.154;2023-04-28T11:18:51;96273.59;;;18.41;83.99
14689;BME280;7432;48.728;9.154;2023-04-28T11:21:20;96269.72;;;18.25;84.55
14689;BME280;7432;48.728;9.154;2023-04-28T11:23:47;96271.78;;;17.92;81.88
14689;BME280;7432;48.728;9.154;2023-04-28T11:26:13;96276.41;;;17.45;84.40
14689;BME280;7432;48.728;9.154;2023-04-28T11:28:47;96272.44;;;17.36;86.06
14689;BME280;7432;48.728;9.154;2023-04-28T11:31:15;96274.00;;;17.44;85.84
14689;BME280;7432;48.728;9.154;2023-04-28T11:33:45;96265.13;;;17.64;86.36
14689;BME280;7432;48.728;9.154;2023-04-28T11:36:26;96264.09;;;17.65;82.80
14689;BME280;7432;48.728;9.154;2023-04-28T11:38:54;96264.63;;;17.81;82.26
14689;BME280;7432;48.728;9.154;2023-04-28T11:41:21;96267.56;;;17.91;82.10
14689;BME280;7432;48.728;9.154;2023-04-28T11:43:48;96264.75;;;18.17;82.58
14689;BME280;7432;48.728;9.154;2023-04-28T11:46:18;96260.81;;;18.08;84.10
14689;BME280;7432;48.728;9.154;2023-04-28T11:48:45;96261.22;;;17.80;79.67
14689;BME280;7432;48.728;9.154;2023-04-28T11:51:32;96254.66;;;17.71;82.21
14689;BME280;7432;48.728;9.154;2023-04-28T11:53:59;96257.63;;;17.81;82.48
14689;BME280;7432;48.728;9.154;2023-04-28T11:56:26;96252.91;;;17.90;79.46
14689;BME280;7432;48.728;9.154;2023-04-28T11:59:04;96248.19;;;18.11;77.14
14689;BME280;7432;48.728;9.154;2023-04-28T12:01:31;96252.25;;;18.25;78.14
14689;BME280;7432;48.728;9.154;2023-04-28T12:03:58;96259.09;;;18.45;77.21
14689;BME280;7432;48.728;9.154;2023-04-28T12:06:25;96256.22;;;18.28;75.95
14689;BME280;7432;48.728;9.154;2023-04-28T12:08:54;96262.38;;;18.15;77.19
14689;BME280;7432;48.728;9.154;2023-04-28T12:11:21;96260.94;;;18.19;79.34
14689;BME280;7432;48.728;9.154;2023-04-28T12:14:07;96254.53;;;18.15;80.61
14689;BME280;7432;48.728;9.154;2023-04-28T12:16:41;96243.97;;;18.10;80.16
14689;BME280;7432;48.728;9.154;2023-04-28T12:19:10;96248.78;;;18.07;79.40
14689;BME280;7432;48.728;9.154;2023-04-28T12:21:38;96248.53;;;18.15;80.27
14689;BME280;7432;48.728;9.154;2023-04-28T12:24:19;96251.09;;;18.21;75.84
14689;BME280;7432;48.728;9.154;2023-04-28T12:26:47;96249.88;;;18.67;75.14
14689;BME280;7432;48.728;9.154;2023-04-28T12:29:38;96254.03;;;18.92;73.38
14689;BME280;7432;48.728;9.154;2023-04-28T12:32:06;96245.94;;;19.30;74.25
14689;BME280;7432;48.728;9.154;2023-04-28T12:34:33;96247.91;;;19.65;75.19
14689;BME280;7432;48.728;9.154;2023-04-28T12:37:00;96259.97;;;19.66;72.89
14689;BME280;7432;48.728;9.154;2023-04-28T12:39:31;96261.09;;;19.58;70.96
14689;BME280;7432;48.728;9.154;2023-04-28T12:41:58;96258.06;;;19.25;73.38
14689;BME280;7432;48.728;9.154;2023-04-28T12:44:27;96263.69;;;18.74;71.76
14689;BME280;7432;48.728;9.154;2023-04-28T12:46:53;96260.31;;;18.49;73.30
14689;BME280;7432;48.728;9.154;2023-04-28T12:49:20;96257.25;;;18.27;72.65
14689;BME280;7432;48.728;9.154;2023-04-28T12:51:47;96254.81;;;18.07;73.88
14689;BME280;7432;48.728;9.154;2023-04-28T12:54:13;96261.63;;;18.08;73.23
14689;BME280;7432;48.728;9.154;2023-04-28T12:56:41;96260.75;;;18.14;76.11
14689;BME280;7432;48.728;9.154;2023-04-28T12:59:08;96250.41;;;18.32;74.97
14689;BME280;7432;48.728;9.154;2023-04-28T13:01:35;96249.22;;;18.53;73.57
14689;BME280;7432;48.728;9.154;2023-04-28T13:04:01;96249.66;;;18.50;74.17
14689;BME280;7432;48.728;9.154;2023-04-28T13:06:28;96251.00;;;18.28;75.65
14689;BME280;7432;48.728;9.154;2023-04-28T13:08:55;96245.59;;;18.05;76.43
14689;BME280;7432;48.728;9.154;2023-04-28T13:11:21;96250.16;;;17.85;78.38
14689;BME280;7432;48.728;9.154;2023-04-28T13:13:52;96241.94;;;17.50;79.45